Time;durP1;ratioP1;P1;durP2;ratioP2;P2;SDS_P1;SDS_P2;PMS_P1;PMS_P2;Temp;Humidity;BMP_temperature;BMP_pressure;BME280_temperature;BME280_humidity;BME280_pressure;Samples;Min_cycle;Max_cycle;Signal;HPM_P1;HPM_P2
2022/06/22 00:02:03;;;;;;;13.00;9.50;;;;;;;14.11;100.00;-25463.84;5091418;28;20074;-75
2022/06/22 00:04:55;;;;;;;15.05;9.25;;;;;;;14.08;100.00;-25462.97;5081694;28;20059;-79
2022/06/22 00:07:24;;;;;;;16.27;9.98;;;;;;;14.03;100.00;-25461.53;5085587;28;20036;-81
2022/06/22 00:10:13;;;;;;;15.93;10.52;;;;;;;13.91;100.00;-25458.31;5092560;28;20083;-79
2022/06/22 00:12:39;;;;;;;17.70;11.50;;;;;;;13.86;100.00;-25456.72;5095171;28;20107;-82
2022/06/22 00:15:36;;;;;;;16.13;10.90;;;;;;;13.86;100.00;-25456.84;5091913;28;20032;-80
2022/06/22 00:18:19;;;;;;;15.18;9.98;;;;;;;13.85;100.00;-25456.41;5090967;28;20031;-80
2022/06/22 00:20:49;;;;;;;14.13;10.48;;;;;;;13.80;100.00;-25455.25;5091489;28;20082;-79
2022/06/22 00:23:37;;;;;;;17.23;10.70;;;;;;;13.76;100.00;-25454.09;5091007;28;20426;-81
2022/06/22 00:26:15;;;;;;;15.30;9.90;;;;;;;13.74;100.00;-25453.50;5090801;28;20066;-77
2022/06/22 00:29:17;;;;;;;15.50;10.88;;;;;;;13.67;100.00;-25451.47;5091067;28;20032;-81
2022/06/22 00:31:47;;;;;;;17.52;11.52;;;;;;;13.53;100.00;-25447.53;5090718;28;20031;-78
2022/06/22 00:34:17;;;;;;;19.17;12.15;;;;;;;13.43;100.00;-25444.59;5092335;28;20042;-80
2022/06/22 00:36:47;;;;;;;17.98;12.63;;;;;;;13.39;100.00;-25443.44;5090554;28;20046;-74
2022/06/22 00:39:24;;;;;;;18.30;12.52;;;;;;;13.35;100.00;-25442.41;5088969;28;20039;-74
2022/06/22 00:41:59;;;;;;;16.17;12.23;;;;;;;13.43;100.00;-25444.59;5089133;28;20035;-74
2022/06/22 00:44:28;;;;;;;21.17;12.20;;;;;;;13.49;100.00;-25446.34;5090090;28;20111;-74
2022/06/22 00:47:04;;;;;;;18.17;12.07;;;;;;;13.53;100.00;-25447.38;5089041;28;20043;-75
2022/06/22 00:49:31;;;;;;;18.10;11.88;;;;;;;13.45;100.00;-25445.34;5089698;28;20034;-75
2022/06/22 00:52:08;;;;;;;14.90;11.82;;;;;;;13.45;100.00;-25445.34;5090205;28;20472;-75
2022/06/22 00:54:36;;;;;;;16.60;12.48;;;;;;;13.38;100.00;-25443.16;5089169;28;20505;-74
2022/06/22 00:57:23;;;;;;;15.85;12.20;;;;;;;13.31;100.00;-25441.09;5089633;28;20016;-75
2022/06/22 00:59:58;;;;;;;19.20;11.73;;;;;;;13.26;100.00;-25439.78;5088983;28;20032;-74
2022/06/22 01:02:23;;;;;;;18.55;12.77;;;;;;;13.26;100.00;-25439.91;5089621;28;20066;-74
2022/06/22 01:04:52;;;;;;;19.05;12.65;;;;;;;13.24;100.00;-25439.34;5089157;28;20072;-78
2022/06/22 01:08:07;;;;;;;18.67;13.27;;;;;;;13.19;100.00;-25437.72;5089381;28;20032;-76
2022/06/22 01:10:44;;;;;;;18.63;13.38;;;;;;;13.25;100.00;-25439.63;5065764;28;20042;-75
2022/06/22 01:13:32;;;;;;;18.58;12.75;;;;;;;13.27;100.00;-25440.22;5089177;28;20028;-75
2022/06/22 01:16:10;;;;;;;15.88;11.52;;;;;;;13.23;100.00;-25439.03;5083473;28;20403;-74
2022/06/22 01:18:52;;;;;;;19.08;11.68;;;;;;;13.27;100.00;-25440.22;5089548;28;20067;-76
2022/06/22 01:21:28;;;;;;;15.77;11.68;;;;;;;13.23;100.00;-25439.03;5090048;28;20027;-75
2022/06/22 01:24:02;;;;;;;19.80;11.80;;;;;;;13.21;100.00;-25438.47;5089529;28;20476;-76
2022/06/22 01:26:37;;;;;;;17.88;12.07;;;;;;;13.25;100.00;-25439.63;5089929;28;20496;-74
2022/06/22 01:29:18;;;;;;;19.20;12.15;;;;;;;13.23;100.00;-25439.03;5089513;28;20057;-74
2022/06/22 01:32:13;;;;;;;18.40;12.90;;;;;;;13.22;100.00;-25438.75;5089399;28;20034;-77
2022/06/22 01:34:42;;;;;;;17.55;11.95;;;;;;;13.23;100.00;-25439.03;5089370;28;20028;-77
2022/06/22 01:37:30;;;;;;;20.80;12.02;;;;;;;13.23;100.00;-25438.91;5089370;28;20059;-79
2022/06/22 01:40:10;;;;;;;16.67;12.07;;;;;;;13.21;100.00;-25438.47;5089588;28;20034;-80
2022/06/22 01:43:08;;;;;;;17.45;12.13;;;;;;;13.18;100.00;-25437.44;5085595;28;20033;-75
2022/06/22 01:45:58;;;;;;;17.05;10.70;;;;;;;13.18;100.00;-25437.44;5084383;28;20154;-74
2022/06/22 01:48:34;;;;;;;17.83;11.17;;;;;;;13.09;100.00;-25434.97;5089742;28;20143;-74
2022/06/22 01:51:37;;;;;;;16.05;11.68;;;;;;;13.11;100.00;-25435.53;5089319;28;20434;-76
2022/06/22 01:54:12;;;;;;;17.63;11.10;;;;;;;13.14;100.00;-25436.41;5093620;28;20024;-77
2022/06/22 01:56:45;;;;;;;17.83;11.32;;;;;;;13.10;100.00;-25435.25;5092938;28;20066;-77
2022/06/22 02:00:05;;;;;;;20.27;11.57;;;;;;;13.02;100.00;-25433.06;5093562;28;20024;-76
2022/06/22 02:02:35;;;;;;;17.00;11.55;;;;;;;13.09;100.00;-25435.09;5035167;28;20033;-80
2022/06/22 02:05:17;;;;;;;16.63;12.13;;;;;;;13.12;100.00;-25435.84;5089922;28;20140;-80
2022/06/22 02:07:52;;;;;;;15.18;10.95;;;;;;;13.09;100.00;-25434.97;5093262;28;20020;-79
2022/06/22 02:10:30;;;;;;;15.32;11.50;;;;;;;13.07;100.00;-25434.53;5092948;28;20024;-76
2022/06/22 02:13:31;;;;;;;20.15;11.85;;;;;;;12.97;100.00;-25431.59;5093626;28;20135;-77
2022/06/22 02:16:10;;;;;;;20.20;12.40;;;;;;;12.92;100.00;-25430.28;5093552;28;20020;-81
2022/06/22 02:18:49;;;;;;;19.25;13.95;;;;;;;12.92;100.00;-25430.28;5092806;28;20039;-79
2022/06/22 02:21:22;;;;;;;20.58;12.82;;;;;;;12.89;100.00;-25429.41;5093571;28;20042;-74
2022/06/22 02:24:00;;;;;;;21.17;12.65;;;;;;;12.82;100.00;-25427.38;5092556;28;20019;-79
2022/06/22 02:26:42;;;;;;;16.65;11.70;;;;;;;12.76;100.00;-25425.59;5093478;28;20136;-78
2022/06/22 02:29:08;;;;;;;17.40;12.40;;;;;;;12.69;100.00;-25423.56;5088845;28;20111;-73
2022/06/22 02:31:35;;;;;;;18.55;13.30;;;;;;;12.61;100.00;-25421.22;5092133;28;20036;-77
2022/06/22 02:34:02;;;;;;;20.63;12.43;;;;;;;12.60;100.00;-25420.94;5093263;28;20024;-75
2022/06/22 02:36:31;;;;;;;16.95;12.75;;;;;;;12.61;100.00;-25421.38;5093418;28;20077;-76
2022/06/22 02:39:01;;;;;;;16.98;12.07;;;;;;;12.60;100.00;-25420.94;5092977;28;20050;-82
2022/06/22 02:44:31;;;;;;;18.88;13.52;;;;;;;12.52;100.00;-25418.75;5093825;28;20355;-82
2022/06/22 02:46:59;;;;;;;20.38;13.80;;;;;;;12.50;100.00;-25418.31;5092843;28;20065;-75
2022/06/22 02:49:31;;;;;;;19.27;13.18;;;;;;;12.46;100.00;-25416.97;5092851;28;20107;-77
2022/06/22 02:51:58;;;;;;;22.10;14.27;;;;;;;12.40;100.00;-25415.38;5093391;28;20020;-82
2022/06/22 02:54:49;;;;;;;21.52;13.75;;;;;;;12.36;100.00;-25414.22;5092037;28;20243;-77
2022/06/22 02:57:24;;;;;;;19.90;13.50;;;;;;;12.35;100.00;-25414.06;5093243;28;20121;-79
2022/06/22 02:59:50;;;;;;;21.27;13.80;;;;;;;12.33;100.00;-25413.31;5092009;28;20031;-75
2022/06/22 03:02:18;;;;;;;24.33;15.05;;;;;;;12.28;100.00;-25411.88;5093388;28;20028;-75
2022/06/22 03:04:46;;;;;;;22.70;15.48;;;;;;;12.24;100.00;-25410.69;5091214;28;20027;-74
2022/06/22 03:07:12;;;;;;;21.35;15.00;;;;;;;12.18;100.00;-25409.09;5091391;28;20028;-75
2022/06/22 03:09:38;;;;;;;20.98;14.82;;;;;;;12.10;100.00;-25406.88;5091783;28;20074;-74
2022/06/22 03:12:05;;;;;;;21.88;15.38;;;;;;;12.11;100.00;-25407.03;5104184;28;20070;-75
2022/06/22 03:14:37;;;;;;;24.13;15.68;;;;;;;12.07;100.00;-25405.88;5090362;28;20028;-74
2022/06/22 03:17:12;;;;;;;23.67;15.77;;;;;;;12.03;100.00;-25405.00;5092025;28;20028;-75
2022/06/22 03:19:54;;;;;;;24.00;15.80;;;;;;;12.03;100.00;-25404.84;5091720;28;20031;-73
2022/06/22 03:22:27;;;;;;;23.27;15.82;;;;;;;12.09;100.00;-25406.59;5091700;28;20041;-74
2022/06/22 03:25:00;;;;;;;26.55;16.25;;;;;;;12.11;100.00;-25407.19;5091393;28;20047;-74
2022/06/22 03:27:32;;;;;;;25.65;15.25;;;;;;;12.13;100.00;-25407.78;5091703;28;20039;-75
2022/06/22 03:30:10;;;;;;;26.25;16.42;;;;;;;12.15;100.00;-25408.34;5091065;28;20028;-75
2022/06/22 03:33:22;;;;;;;26.30;16.50;;;;;;;12.18;100.00;-25409.09;5091071;28;20106;-75
2022/06/22 03:35:53;;;;;;;22.23;16.02;;;;;;;12.24;100.00;-25410.84;5086767;28;20058;-76
2022/06/22 03:38:24;;;;;;;21.70;14.63;;;;;;;12.24;100.00;-25410.69;5091594;28;20476;-78
2022/06/22 03:41:00;;;;;;;21.60;15.07;;;;;;;12.24;100.00;-25410.69;5090250;28;20036;-74
2022/06/22 03:43:44;;;;;;;23.17;15.05;;;;;;;12.31;100.00;-25412.88;5090464;28;20057;-74
2022/06/22 03:46:16;;;;;;;21.38;14.82;;;;;;;12.44;100.00;-25416.53;5091264;28;20028;-74
2022/06/22 03:48:47;;;;;;;20.55;14.98;;;;;;;12.46;100.00;-25417.13;5090706;28;20111;-81
2022/06/22 03:51:26;;;;;;;24.75;15.25;;;;;;;12.84;100.00;-25427.81;5090978;28;20439;-77
2022/06/22 03:54:04;;;;;;;18.45;14.02;;;;;;;13.27;100.00;-25440.22;5090383;28;20023;-75
2022/06/22 03:56:35;;;;;;;20.90;13.63;;;;;;;13.23;100.00;-25439.03;5090232;28;20024;-75
2022/06/22 03:59:04;;;;;;;23.88;14.55;;;;;;;13.37;100.00;-25442.84;5091055;28;20043;-75
2022/06/22 04:01:30;;;;;;;22.15;14.00;;;;;;;14.28;100.00;-25468.81;5090022;28;20110;-76
2022/06/22 04:03:57;;;;;;;19.08;12.85;;;;;;;15.35;100.00;-25499.09;5089609;28;20028;-76
2022/06/22 04:06:30;;;;;;;18.25;11.95;;;;;;;16.07;100.00;-25519.31;5090989;28;20069;-79
2022/06/22 04:08:56;;;;;;;14.77;10.95;;;;;;;16.47;100.00;-25530.78;5091034;28;20027;-73
2022/06/22 04:11:26;;;;;;;16.13;11.32;;;;;;;17.29;100.00;-25553.72;5089916;28;20081;-73
2022/06/22 04:14:07;;;;;;;13.68;9.50;;;;;;;17.84;100.00;-25569.22;5090287;28;20020;-76
2022/06/22 04:16:39;;;;;;;13.35;9.80;;;;;;;18.50;100.00;-14333.16;5075803;28;20140;-76
2022/06/22 04:19:12;;;;;;;12.57;9.45;;;;;;;18.79;100.00;14287.81;5089772;28;20027;-73
2022/06/22 04:21:44;;;;;;;12.63;9.80;;;;;;;19.16;100.00;55971.91;5090159;28;20028;-73
2022/06/22 04:24:18;;;;;;;12.85;9.02;;;;;;;18.59;100.00;92876.13;5089048;28;20024;-74
2022/06/22 04:27:05;;;;;;;12.13;9.13;;;;;;;18.92;100.00;114802.00;5089565;28;20047;-73
2022/06/22 04:29:46;;;;;;;11.30;9.25;;;;;;;19.12;100.00;147533.03;5086914;28;20043;-73
2022/06/22 04:32:14;;;;;;;10.73;8.75;;;;;;;20.08;100.00;147773.78;5088753;28;20070;-74
2022/06/22 04:34:45;;;;;;;14.52;9.27;;;;;;;20.29;100.00;147825.06;5090063;28;20019;-74
2022/06/22 04:37:31;;;;;;;12.50;8.82;;;;;;;20.21;100.00;147804.53;5106522;28;20371;-82
2022/06/22 04:40:14;;;;;;;11.30;8.85;;;;;;;21.06;100.00;148016.00;5089875;28;20118;-79
2022/06/22 04:42:41;;;;;;;12.27;9.10;;;;;;;21.47;100.00;148119.84;5090068;28;20024;-75
2022/06/22 04:45:22;;;;;;;12.15;8.70;;;;;;;21.64;100.00;148160.91;5089773;28;20020;-75
2022/06/22 04:47:47;;;;;;;11.15;8.90;;;;;;;22.09;100.00;148272.47;5089903;28;20181;-74
2022/06/22 04:50:13;;;;;;;11.15;9.07;;;;;;;21.92;100.00;148230.16;5090129;28;20525;-74
2022/06/22 04:52:42;;;;;;;10.77;8.38;;;;;;;22.16;100.00;148291.72;5088596;28;20031;-74
2022/06/22 04:55:16;;;;;;;14.07;8.70;;;;;;;22.52;100.00;148380.28;5089651;28;20016;-73
2022/06/22 04:57:44;;;;;;;11.57;8.60;;;;;;;22.26;100.00;148316.06;5089382;28;20028;-74
2022/06/22 05:00:20;;;;;;;11.50;8.18;;;;;;;22.41;100.00;148353.34;5088488;28;20031;-74
2022/06/22 05:02:49;;;;;;;10.10;8.10;;;;;;;22.63;100.00;148408.50;5089372;28;20024;-76
2022/06/22 05:05:30;;;;;;;11.20;8.30;;;;;;;22.99;100.00;148498.31;5089485;28;20113;-77
2022/06/22 05:08:07;;;;;;;10.77;8.45;;;;;;;22.19;100.00;148299.41;5089554;28;20020;-79
2022/06/22 05:10:35;;;;;;;9.95;8.27;;;;;;;21.89;100.00;148223.72;5090553;28;20107;-73
2022/06/22 05:13:11;;;;;;;12.20;9.02;;;;;;;22.27;100.00;148317.38;5089879;28;20049;-82
2022/06/22 05:15:39;;;;;;;10.80;8.50;;;;;;;22.75;100.00;148439.28;5084689;28;20127;-79
2022/06/22 05:18:13;;;;;;;14.45;8.32;;;;;;;21.02;100.00;148007.06;5069521;28;20032;-74
2022/06/22 05:20:48;;;;;;;13.45;9.30;;;;;;;19.74;100.00;147687.94;5068522;28;20016;-79
2022/06/22 05:23:17;;;;;;;12.82;9.30;;;;;;;19.47;100.00;147620.09;5069499;28;20025;-78
2022/06/22 05:25:45;;;;;;;12.85;9.40;;;;;;;18.45;100.00;147366.63;5069370;28;20044;-78
2022/06/22 05:28:17;;;;;;;13.35;9.32;;;;;;;17.75;100.00;147193.91;5068995;28;20048;-80
2022/06/22 05:30:54;;;;;;;14.38;9.50;;;;;;;17.33;100.00;147087.81;5069121;28;20051;-73
2022/06/22 05:33:25;;;;;;;14.52;9.70;;;;;;;17.00;100.00;147006.03;5068270;28;20017;-73
2022/06/22 05:35:55;;;;;;;;;;;;;;;17.03;100.00;147014.94;5067869;28;20024;-79
2022/06/22 05:38:22;;;;;;;14.55;9.98;;;;;;;16.65;100.00;146919.06;5068567;28;20369;-74
2022/06/22 05:40:49;;;;;;;15.45;10.00;;;;;;;17.05;100.00;116486.31;5068125;28;20052;-74
2022/06/22 05:43:17;;;;;;;15.35;10.02;;;;;;;17.49;100.00;112470.50;5084487;28;20425;-73
2022/06/22 05:45:46;;;;;;;14.30;9.70;;;;;;;18.47;100.00;125686.06;5068488;28;20059;-72
2022/06/22 05:48:17;;;;;;;16.45;10.27;;;;;;;18.85;100.00;147466.50;5085938;28;20089;-75
2022/06/22 05:50:58;;;;;;;14.98;9.80;;;;;;;18.63;100.00;147412.69;5087779;28;20027;-73
2022/06/22 05:53:45;;;;;;;13.82;9.82;;;;;;;18.98;100.00;147498.47;5087820;28;20633;-73
2022/06/22 05:56:18;;;;;;;11.50;9.23;;;;;;;18.64;100.00;147413.97;5087161;28;20028;-73
2022/06/22 05:59:13;;;;;;;14.85;9.35;;;;;;;17.91;100.00;147233.63;5088050;28;20055;-74
2022/06/22 06:01:53;;;;;;;14.52;9.52;;;;;;;17.32;100.00;147085.25;5088622;28;20032;-73
2022/06/22 06:04:33;;;;;;;16.85;9.70;;;;;;;17.25;100.00;120630.34;5087941;28;20583;-76
2022/06/22 06:07:14;;;;;;;14.13;9.70;;;;;;;17.02;100.00;99085.44;5088802;28;20055;-80
2022/06/22 06:09:39;;;;;;;15.65;9.23;;;;;;;17.13;100.00;87546.66;5087638;28;20012;-77
2022/06/22 06:12:13;;;;;;;14.13;10.10;;;;;;;17.66;100.00;79143.72;5088634;28;20548;-73
2022/06/22 06:14:43;;;;;;;17.75;9.35;;;;;;;17.46;100.00;81488.28;5088229;28;20020;-75
2022/06/22 06:17:14;;;;;;;13.02;9.40;;;;;;;17.36;100.00;81136.09;5087810;28;20484;-73
2022/06/22 06:19:44;;;;;;;12.05;9.18;;;;;;;17.95;100.00;85293.19;5088370;28;20185;-77
2022/06/22 06:22:11;;;;;;;13.95;9.90;;;;;;;18.15;100.00;92124.47;5089442;28;20514;-78
2022/06/22 06:27:41;;;;;;;18.67;10.38;;;;;;;18.03;100.00;90743.88;5090432;28;20050;-80
2022/06/22 06:30:25;;;;;;;17.65;10.13;;;;;;;17.98;100.00;93798.38;5087997;28;20126;-75
2022/06/22 06:33:21;;;;;;;14.70;9.90;;;;;;;17.99;100.00;85977.97;5085704;28;20032;-75
2022/06/22 06:35:52;;;;;;;15.73;8.80;;;;;;;17.73;100.00;95460.13;5087635;28;20024;-79
2022/06/22 06:38:34;;;;;;;17.40;9.90;;;;;;;18.03;100.00;85984.88;5088470;28;20027;-77
2022/06/22 06:41:08;;;;;;;13.45;10.15;;;;;;;17.91;100.00;92767.38;5092568;28;20020;-79
2022/06/22 06:44:23;;;;;;;13.70;9.48;;;;;;;19.20;100.00;104242.06;5092597;28;20028;-77
2022/06/22 06:46:53;;;;;;;13.18;8.52;;;;;;;19.80;100.00;147702.09;5079136;28;20042;-77
2022/06/22 06:49:18;;;;;;;12.80;7.60;;;;;;;19.97;100.00;147745.63;5092310;28;20035;-77
2022/06/22 06:51:52;;;;;;;12.95;7.85;;;;;;;19.97;100.00;147745.63;5090536;28;20031;-75
2022/06/22 06:54:25;;;;;;;11.45;7.32;;;;;;;19.67;100.00;147671.31;5091995;28;20473;-77
2022/06/22 06:56:57;;;;;;;11.35;7.10;;;;;;;20.33;100.00;147834.00;5091926;28;20035;-78
2022/06/22 06:59:28;;;;;;;10.35;6.82;;;;;;;20.85;100.00;147963.44;5090985;28;20035;-73
2022/06/22 07:01:54;;;;;;;9.25;6.18;;;;;;;20.65;100.00;147913.47;5091759;28;20070;-76
2022/06/22 07:04:28;;;;;;;10.73;6.30;;;;;;;19.99;100.00;147750.72;5091337;28;20020;-78
2022/06/22 07:07:05;;;;;;;11.38;6.65;;;;;;;19.72;100.00;147682.84;5090958;28;20020;-77
2022/06/22 07:09:37;;;;;;;12.10;6.68;;;;;;;20.44;100.00;147862.19;5091730;28;20032;-76
2022/06/22 07:12:17;;;;;;;11.70;7.00;;;;;;;21.50;100.00;148127.59;5091810;28;20380;-79
2022/06/22 07:14:44;;;;;;;10.20;6.47;;;;;;;21.74;100.00;148186.56;5090105;28;20028;-78
2022/06/22 07:17:20;;;;;;;10.10;6.30;;;;;;;22.89;100.00;148472.66;5091457;28;20426;-80
2022/06/22 07:19:53;;;;;;;11.45;6.28;;;;;;;23.63;100.00;148657.50;5090518;28;20570;-79
2022/06/22 07:23:00;;;;;;;7.35;6.03;;;;;;;22.57;100.00;148394.34;5092286;28;20323;-80
2022/06/22 07:25:51;;;;;;;10.55;5.93;;;;;;;23.59;100.00;148648.53;5084875;28;20396;-79
2022/06/22 07:28:23;;;;;;;11.02;6.03;;;;;;;23.03;100.00;148507.31;5090895;28;20165;-75
2022/06/22 07:30:56;;;;;;;8.10;4.95;;;;;;;23.93;100.00;148733.34;5090861;28;20036;-79
2022/06/22 07:33:33;;;;;;;9.05;5.22;;;;;;;23.50;100.00;148624.16;5091287;28;20032;-78
2022/06/22 07:36:09;;;;;;;7.20;4.80;;;;;;;23.56;100.00;148640.84;5090916;28;20479;-80
2022/06/22 07:38:49;;;;;;;7.60;5.18;;;;;;;23.19;100.00;148548.41;5091589;28;20046;-81
2022/06/22 07:41:20;;;;;;;8.70;4.97;;;;;;;24.10;100.00;148774.41;5091031;28;20358;-81
2022/06/22 07:43:48;;;;;;;9.13;5.43;;;;;;;23.12;100.00;148530.47;5090863;28;20060;-80
2022/06/22 07:46:23;;;;;;;7.72;5.07;;;;;;;23.35;100.00;148586.91;5091833;28;20032;-80
2022/06/22 07:48:54;;;;;;;8.13;5.30;;;;;;;22.99;100.00;148497.03;5090500;28;20028;-76
2022/06/22 07:51:25;;;;;;;9.90;5.93;;;;;;;23.19;100.00;148547.13;5091940;28;20487;-81
2022/06/22 07:53:54;;;;;;;8.52;5.53;;;;;;;22.24;100.00;148310.94;5090418;28;20020;-80
2022/06/22 07:56:31;;;;;;;11.93;5.32;;;;;;;22.95;100.00;148489.34;5091143;28;20024;-78
2022/06/22 07:59:07;;;;;;;9.07;4.90;;;;;;;22.80;100.00;148450.84;5092534;28;20464;-73
2022/06/22 08:01:38;;;;;;;8.98;4.50;;;;;;;23.20;100.00;148551.00;5090388;28;20035;-73
2022/06/22 08:04:33;;;;;;;8.48;4.55;;;;;;;23.64;100.00;148660.09;5090880;28;20012;-79
2022/06/22 08:07:04;;;;;;;8.45;4.00;;;;;;;23.41;100.00;148603.59;5087255;28;20123;-79
2022/06/22 08:09:46;;;;;;;10.23;4.13;;;;;;;22.54;100.00;148385.41;5089698;28;20046;-79
2022/06/22 08:12:22;;;;;;;4.65;2.33;;;;;;;22.51;100.00;148379.00;5091365;28;20114;-81
2022/06/22 08:14:52;;;;;;;6.40;2.72;;;;;;;23.33;100.00;148583.06;5090573;28;20047;-74
2022/06/22 08:17:41;;;;;;;5.53;2.60;;;;;;;22.64;100.00;148411.06;5089020;28;20479;-77
2022/06/22 08:20:13;;;;;;;6.40;3.30;;;;;;;22.76;100.00;148440.56;5090130;28;20024;-74
2022/06/22 08:22:41;;;;;;;4.80;2.25;;;;;;;22.44;100.00;148361.03;5089067;28;20020;-75
2022/06/22 08:25:07;;;;;;;5.70;2.55;;;;;;;22.70;100.00;148425.16;5088720;28;20061;-80
2022/06/22 08:27:32;;;;;;;7.15;3.35;;;;;;;23.00;100.00;148500.88;5089075;28;20077;-76
2022/06/22 08:29:58;;;;;;;6.82;2.78;;;;;;;23.26;100.00;148566.41;5088801;28;20123;-77
2022/06/22 08:32:26;;;;;;;5.72;3.50;;;;;;;23.45;100.00;148612.59;5089600;28;20024;-73
2022/06/22 08:34:55;;;;;;;4.95;2.83;;;;;;;23.55;100.00;148638.25;5088709;28;20392;-73
2022/06/22 08:37:39;;;;;;;6.45;3.15;;;;;;;23.44;100.00;148610.03;5088703;28;20028;-76
2022/06/22 08:40:28;;;;;;;5.47;3.45;;;;;;;23.14;100.00;148535.59;5089601;28;20042;-73
2022/06/22 08:43:02;;;;;;;5.63;3.00;;;;;;;22.88;100.00;148471.34;5088847;28;20448;-75
2022/06/22 08:45:42;;;;;;;7.45;3.53;;;;;;;23.55;100.00;148638.25;5088509;28;20052;-74
2022/06/22 08:48:17;;;;;;;7.25;3.20;;;;;;;23.26;100.00;148566.41;5089718;28;20476;-75
2022/06/22 08:50:51;;;;;;;7.18;3.40;;;;;;;23.23;100.00;148557.41;5088949;28;20472;-74
2022/06/22 08:53:58;;;;;;;4.90;3.38;;;;;;;24.00;100.00;148751.34;5088646;28;20034;-73
2022/06/22 08:56:39;;;;;;;6.78;3.42;;;;;;;23.19;100.00;148548.41;5056069;28;20036;-74
2022/06/22 08:59:13;;;;;;;8.98;3.92;;;;;;;24.11;100.00;148778.25;5088020;28;20039;-73
2022/06/22 09:02:07;;;;;;;7.65;3.40;;;;;;;23.19;100.00;148548.41;5088311;28;20105;-73
2022/06/22 09:04:36;;;;;;;7.40;3.28;;;;;;;23.50;100.00;148624.16;5088522;28;20027;-73
2022/06/22 09:07:36;;;;;;;6.60;3.63;;;;;;;23.51;100.00;148628.00;5088145;28;20241;-74
2022/06/22 09:10:18;;;;;;;14.07;4.85;;;;;;;23.34;100.00;148584.34;5089117;28;20035;-73
2022/06/22 09:13:15;;;;;;;5.78;3.17;;;;;;;23.47;100.00;148619.00;5087274;28;20027;-73
2022/06/22 09:16:17;;;;;;;5.07;2.92;;;;;;;24.09;100.00;148771.88;5088340;28;20081;-74
2022/06/22 09:19:04;;;;;;;6.15;3.20;;;;;;;24.12;100.00;148779.56;5089632;28;20051;-75
2022/06/22 09:21:50;;;;;;;6.45;3.10;;;;;;;24.10;100.00;148775.72;5088139;28;20070;-74
2022/06/22 09:24:45;;;;;;;4.45;2.67;;;;;;;24.39;100.00;148847.63;5038296;28;20036;-80
2022/06/22 09:27:17;;;;;;;4.55;2.33;;;;;;;23.83;100.00;148707.59;5088107;28;20128;-78
2022/06/22 09:30:08;;;;;;;5.13;2.50;;;;;;;24.28;100.00;148820.66;5088931;28;20117;-74
2022/06/22 09:32:36;;;;;;;8.45;2.95;;;;;;;23.55;100.00;148636.97;5091079;28;20046;-76
2022/06/22 09:35:33;;;;;;;4.90;2.45;;;;;;;23.91;100.00;148728.22;5089125;28;20043;-80
2022/06/22 09:38:07;;;;;;;5.25;2.25;;;;;;;23.50;100.00;148625.44;5089852;28;20027;-81
2022/06/22 09:40:50;;;;;;;3.97;2.30;;;;;;;23.15;100.00;148538.16;5088376;28;20054;-81
2022/06/22 09:43:42;;;;;;;4.78;2.92;;;;;;;22.81;100.00;148452.09;5089643;28;20024;-79
2022/06/22 09:46:32;;;;;;;5.18;2.67;;;;;;;22.92;100.00;148480.38;5089195;28;20028;-81
2022/06/22 09:49:30;;;;;;;5.25;2.40;;;;;;;23.27;100.00;148568.97;5088226;28;20064;-76
2022/06/22 09:52:18;;;;;;;4.50;2.40;;;;;;;23.76;100.00;148690.91;5089321;28;20060;-79
2022/06/22 09:58:04;;;;;;;5.95;2.80;;;;;;;23.68;100.00;148670.38;5090871;28;20039;-78
2022/06/22 10:01:01;;;;;;;4.15;2.42;;;;;;;23.55;100.00;148638.25;5089493;28;20028;-75
2022/06/22 10:03:54;;;;;;;7.45;2.85;;;;;;;23.02;100.00;148504.72;5045053;28;20036;-80
2022/06/22 10:06:35;;;;;;;5.05;2.53;;;;;;;22.93;100.00;148484.22;5089406;28;20024;-76
2022/06/22 10:09:09;;;;;;;5.78;2.78;;;;;;;23.02;100.00;148504.72;5088495;28;20141;-78
2022/06/22 10:11:38;;;;;;;3.78;2.13;;;;;;;23.17;100.00;148543.28;5089008;28;20028;-77
2022/06/22 10:14:25;;;;;;;5.95;2.67;;;;;;;23.23;100.00;148558.69;5090880;28;20027;-77
2022/06/22 10:17:12;;;;;;;5.53;2.60;;;;;;;22.98;100.00;148494.44;5088932;28;20024;-80
2022/06/22 10:19:43;;;;;;;5.65;3.10;;;;;;;22.95;100.00;148488.06;5092676;28;20028;-79
2022/06/22 10:22:28;;;;;;;6.43;2.90;;;;;;;22.94;100.00;148486.75;5093366;28;20032;-77
2022/06/22 10:25:13;;;;;;;6.63;2.80;;;;;;;22.98;100.00;148494.44;5093242;28;20099;-78
2022/06/22 10:28:18;;;;;;;5.57;2.58;;;;;;;23.08;100.00;148520.13;5092691;28;20024;-73
2022/06/22 10:31:14;;;;;;;7.43;2.10;;;;;;;22.88;100.00;148470.09;5090963;28;20472;-76
2022/06/22 10:34:11;;;;;;;5.55;2.80;;;;;;;22.89;100.00;148473.94;5091599;28;20031;-75
2022/06/22 10:36:46;;;;;;;4.15;1.98;;;;;;;22.87;100.00;148467.50;5090585;28;20024;-79
2022/06/22 10:39:39;;;;;;;5.70;2.78;;;;;;;22.57;100.00;148394.34;5092050;28;20047;-76
2022/06/22 10:45:32;;;;;;;5.80;2.47;;;;;;;23.09;100.00;148524.03;5098400;28;20053;-76
2022/06/22 10:48:12;;;;;;;6.53;2.70;;;;;;;22.97;100.00;148493.19;5112078;28;20463;-76
2022/06/22 10:51:05;;;;;;;5.93;2.60;;;;;;;22.75;100.00;148438.00;5111491;28;20364;-77
2022/06/22 10:53:57;;;;;;;4.70;2.20;;;;;;;23.06;100.00;148516.28;5111474;28;20476;-79
2022/06/22 10:56:31;;;;;;;3.28;1.80;;;;;;;23.10;100.00;148525.31;5112513;28;20031;-74
2022/06/22 10:59:13;;;;;;;5.93;2.60;;;;;;;23.11;100.00;148529.16;5110567;28;20526;-76
2022/06/22 11:01:59;;;;;;;4.43;2.47;;;;;;;22.92;100.00;148481.63;5111902;28;20023;-76
2022/06/22 11:04:36;;;;;;;3.97;1.90;;;;;;;22.91;100.00;148479.06;5111691;28;20091;-79
2022/06/22 11:07:40;;;;;;;4.85;2.30;;;;;;;22.94;100.00;148486.75;5112180;28;20016;-76
2022/06/22 11:10:09;;;;;;;3.90;1.80;;;;;;;23.13;100.00;148533.00;5112676;28;20102;-77
2022/06/22 11:12:52;;;;;;;2.83;1.73;;;;;;;23.09;100.00;148524.03;5111560;28;20110;-78
2022/06/22 11:15:41;;;;;;;2.88;1.50;;;;;;;23.16;100.00;148540.72;5111999;28;20028;-76
2022/06/22 11:18:21;;;;;;;4.35;1.52;;;;;;;23.20;100.00;148549.72;5111218;28;20479;-75
2022/06/22 11:20:46;;;;;;;3.20;1.35;;;;;;;22.98;100.00;148494.44;5110904;28;20554;-76
2022/06/22 11:23:25;;;;;;;2.65;1.15;;;;;;;23.10;100.00;148526.63;5111877;28;20027;-74
2022/06/22 11:32:21;;;;;;;3.05;1.05;;;;;;;23.26;90.32;148565.13;5113206;28;20077;-80
2022/06/22 11:34:52;;;;;;;1.80;1.00;;;;;;;23.08;83.87;148521.44;5110761;28;20114;-77
2022/06/22 11:37:46;;;;;;;2.92;1.00;;;;;;;23.50;94.27;148625.44;5112089;28;20487;-75
2022/06/22 11:40:36;;;;;;;2.03;0.98;;;;;;;23.23;89.58;148558.69;5110080;28;20077;-78
2022/06/22 11:43:16;;;;;;;1.92;0.80;;;;;;;23.51;84.21;148626.69;5111177;28;20020;-81
2022/06/22 11:45:54;;;;;;;2.38;0.90;;;;;;;23.33;86.70;148581.78;5111305;28;20089;-78
2022/06/22 11:48:56;;;;;;;2.70;0.90;;;;;;;23.89;90.72;148721.78;5110469;28;20059;-77
2022/06/22 11:51:46;;;;;;;2.50;1.20;;;;;;;23.91;99.09;148728.22;5111114;28;20555;-81
2022/06/22 11:54:23;;;;;;;2.45;0.95;;;;;;;24.02;97.18;148756.44;5110190;28;20020;-76
2022/06/22 11:57:06;;;;;;;3.03;0.90;;;;;;;23.78;85.70;148696.03;5111400;28;20061;-76
2022/06/22 11:59:35;;;;;;;2.05;1.10;;;;;;;23.99;96.03;148748.75;5110916;28;20111;-77
2022/06/22 12:02:27;;;;;;;4.00;1.10;;;;;;;23.72;99.27;148680.63;5110330;28;20479;-78
2022/06/22 12:05:04;;;;;;;4.15;1.30;;;;;;;23.62;95.23;148656.25;5110885;28;20023;-77
2022/06/22 12:07:38;;;;;;;8.07;1.60;;;;;;;23.88;99.71;148719.19;5111133;28;20026;-75
2022/06/22 12:10:24;;;;;;;3.80;1.30;;;;;;;24.01;99.32;148753.88;5110218;28;20065;-76
2022/06/22 12:13:11;;;;;;;3.90;1.30;;;;;;;23.70;100.00;148674.25;5110513;28;20074;-79
2022/06/22 12:16:16;;;;;;;3.00;1.10;;;;;;;23.97;90.29;148743.63;5109891;28;20491;-77
2022/06/22 12:18:47;;;;;;;3.60;1.30;;;;;;;23.95;100.00;148737.19;5031463;28;20059;-80
2022/06/22 12:21:49;;;;;;;3.08;1.30;;;;;;;23.94;100.00;148735.91;5032173;28;20033;-78